createdAt,value
2018-12-19T00:00:46.608Z,1039.59
2018-12-19T00:01:46.595Z,1039.55
2018-12-19T00:02:46.575Z,1039.57
2018-12-19T00:03:46.559Z,1039.53
2018-12-19T00:04:46.542Z,1039.5
2018-12-19T00:05:46.525Z,1039.44
2018-12-19T00:06:46.510Z,1039.43
2018-12-19T00:07:46.491Z,1039.44
2018-12-19T00:08:46.474Z,1039.38
2018-12-19T00:09:46.458Z,1039.35
2018-12-19T00:10:46.443Z,1039.33
2018-12-19T00:11:46.425Z,1039.3
2018-12-19T00:12:46.410Z,1039.3
2018-12-19T00:13:46.392Z,1039.3
2018-12-19T00:14:46.374Z,1039.29
2018-12-19T00:15:46.357Z,1039.34
2018-12-19T00:16:46.341Z,1039.33
2018-12-19T00:17:46.325Z,1039.34
2018-12-19T00:18:46.307Z,1039.34
2018-12-19T00:19:46.290Z,1039.32
2018-12-19T00:20:46.273Z,1039.34
2018-12-19T00:21:46.257Z,1039.36
2018-12-19T00:22:46.240Z,1039.32
2018-12-19T00:23:46.223Z,1039.31
2018-12-19T00:24:46.206Z,1039.32
2018-12-19T00:25:46.191Z,1039.29
2018-12-19T00:26:46.172Z,1039.28
2018-12-19T00:27:46.156Z,1039.3
2018-12-19T00:28:46.141Z,1039.34
2018-12-19T00:29:46.122Z,1039.32
2018-12-19T00:30:46.105Z,1039.35
2018-12-19T00:31:46.088Z,1039.3
2018-12-19T00:32:46.071Z,1039.32
2018-12-19T00:33:46.054Z,1039.31
2018-12-19T00:34:46.038Z,1039.32
2018-12-19T00:35:46.021Z,1039.31
2018-12-19T00:36:46.005Z,1039.29
2018-12-19T00:37:45.987Z,1039.3
2018-12-19T00:38:45.970Z,1039.3
2018-12-19T00:39:45.953Z,1039.26
2018-12-19T00:40:45.936Z,1039.25
2018-12-19T00:41:45.926Z,1039.23
2018-12-19T00:42:45.904Z,1039.23
2018-12-19T00:43:45.887Z,1039.24
2018-12-19T00:44:45.870Z,1039.21
2018-12-19T00:45:45.853Z,1039.18
2018-12-19T00:46:45.836Z,1039.18
2018-12-19T00:47:45.819Z,1039.19
2018-12-19T00:48:45.803Z,1039.17
2018-12-19T00:49:46.227Z,1039.17
2018-12-19T00:50:45.769Z,1039.17
2018-12-19T00:51:45.752Z,1039.15
2018-12-19T00:52:45.736Z,1039.12
2018-12-19T00:53:45.718Z,1039.11
2018-12-19T00:54:45.702Z,1039.11
2018-12-19T00:55:45.684Z,1039.1
2018-12-19T00:56:45.668Z,1039.12
2018-12-19T00:57:45.650Z,1039.11
2018-12-19T00:58:45.634Z,1039.1
2018-12-19T00:59:45.617Z,1039.16
2018-12-19T01:00:45.600Z,1039.17
2018-12-19T01:01:45.584Z,1039.14
2018-12-19T01:02:45.567Z,1039.13
2018-12-19T01:03:45.550Z,1039.13
2018-12-19T01:04:48.146Z,1039.13
2018-12-19T01:05:45.516Z,1039.15
2018-12-19T01:06:45.500Z,1039.16
2018-12-19T01:07:45.482Z,1039.18
2018-12-19T01:08:45.466Z,1039.11
2018-12-19T01:09:45.450Z,1039.12
2018-12-19T01:10:45.432Z,1039.12
2018-12-19T01:11:45.416Z,1039.13
2018-12-19T01:12:45.400Z,1039.12
2018-12-19T01:13:45.383Z,1039.13
2018-12-19T01:14:45.366Z,1039.1
2018-12-19T01:15:45.349Z,1039.09
2018-12-19T01:16:45.332Z,1039.09
2018-12-19T01:17:45.314Z,1039.11
2018-12-19T01:18:45.298Z,1039.11
2018-12-19T01:19:45.284Z,1039.14
2018-12-19T01:20:45.266Z,1039.11
2018-12-19T01:21:45.247Z,1039.1
2018-12-19T01:22:45.230Z,1039.06
2018-12-19T01:23:45.213Z,1039.02
2018-12-19T01:24:45.195Z,1039.01
2018-12-19T01:25:45.179Z,1038.98
2018-12-19T01:26:45.162Z,1038.97
2018-12-19T01:27:45.146Z,1038.95
2018-12-19T01:28:45.128Z,1038.95
2018-12-19T01:29:45.111Z,1039
2018-12-19T01:30:45.094Z,1039.04
2018-12-19T01:31:45.077Z,1039.03
2018-12-19T01:32:45.061Z,1039.03
2018-12-19T01:33:45.044Z,1039.03
2018-12-19T01:34:45.028Z,1039.02
2018-12-19T01:35:45.011Z,1039
2018-12-19T01:36:44.998Z,1038.95
2018-12-19T01:37:44.976Z,1038.97
2018-12-19T01:38:44.960Z,1038.98
2018-12-19T01:39:44.942Z,1038.95
2018-12-19T01:40:44.924Z,1038.91
2018-12-19T01:41:44.909Z,1038.94
2018-12-19T01:42:44.890Z,1038.95
2018-12-19T01:43:44.873Z,1038.99
2018-12-19T01:44:44.858Z,1038.97
2018-12-19T01:45:44.842Z,1038.99
2018-12-19T01:46:44.823Z,1038.98
2018-12-19T01:47:44.806Z,1038.99
2018-12-19T01:48:44.789Z,1039.01
2018-12-19T01:49:44.772Z,1038.98
2018-12-19T01:50:44.755Z,1039.01
2018-12-19T01:51:44.738Z,1039.05
2018-12-19T01:52:44.721Z,1039.02
2018-12-19T01:53:44.703Z,1039.06
2018-12-19T01:54:44.734Z,1039.04
2018-12-19T01:55:44.670Z,1039.05
2018-12-19T01:56:44.653Z,1039.01
2018-12-19T01:57:44.636Z,1039.01
2018-12-19T01:58:44.620Z,1039
2018-12-19T01:59:44.605Z,1038.99
2018-12-19T02:00:44.587Z,1038.95
2018-12-19T02:01:44.568Z,1038.95
2018-12-19T02:02:44.551Z,1038.95
2018-12-19T02:03:44.534Z,1038.95
2018-12-19T02:04:44.518Z,1038.91
2018-12-19T02:05:44.501Z,1038.94
2018-12-19T02:06:44.484Z,1038.93
2018-12-19T02:07:44.469Z,1038.89
2018-12-19T02:08:44.450Z,1038.94
2018-12-19T02:09:44.432Z,1038.92
2018-12-19T02:10:44.416Z,1038.92
2018-12-19T02:11:44.400Z,1038.93
2018-12-19T02:12:44.382Z,1038.89
2018-12-19T02:13:44.365Z,1038.9
2018-12-19T02:14:44.349Z,1038.85
2018-12-19T02:15:44.330Z,1038.81
2018-12-19T02:16:44.314Z,1038.8
2018-12-19T02:17:44.298Z,1038.79
2018-12-19T02:18:44.279Z,1038.82
2018-12-19T02:19:44.262Z,1038.79
2018-12-19T02:20:44.245Z,1038.78
2018-12-19T02:21:44.229Z,1038.76
2018-12-19T02:22:44.213Z,1038.76
2018-12-19T02:23:44.194Z,1038.72
2018-12-19T02:24:44.179Z,1038.69
2018-12-19T02:25:44.160Z,1038.69
2018-12-19T02:26:44.144Z,1038.69
2018-12-19T02:27:44.128Z,1038.64
2018-12-19T02:28:44.109Z,1038.67
2018-12-19T02:29:44.092Z,1038.65
2018-12-19T02:30:44.076Z,1038.65
2018-12-19T02:31:44.060Z,1038.66
2018-12-19T02:32:44.042Z,1038.69
2018-12-19T02:33:44.025Z,1038.66
2018-12-19T02:34:44.010Z,1038.61
2018-12-19T02:35:43.991Z,1038.59
2018-12-19T02:36:43.975Z,1038.6
2018-12-19T02:37:43.957Z,1038.53
2018-12-19T02:38:43.949Z,1038.53
2018-12-19T02:39:43.923Z,1038.54
2018-12-19T02:40:43.914Z,1038.48
2018-12-19T02:41:43.888Z,1038.49
2018-12-19T02:42:43.886Z,1038.52
2018-12-19T02:43:43.854Z,1038.46
2018-12-19T02:44:43.837Z,1038.51
2018-12-19T02:45:43.820Z,1038.44
2018-12-19T02:46:43.805Z,1038.47
2018-12-19T02:47:43.787Z,1038.42
2018-12-19T02:48:43.770Z,1038.44
2018-12-19T02:49:43.752Z,1038.44
2018-12-19T02:50:43.737Z,1038.44
2018-12-19T02:51:43.720Z,1038.45
2018-12-19T02:52:43.701Z,1038.45
2018-12-19T02:53:43.684Z,1038.44
2018-12-19T02:54:43.669Z,1038.42
2018-12-19T02:55:43.652Z,1038.4
2018-12-19T02:56:43.634Z,1038.39
2018-12-19T02:57:43.618Z,1038.41
2018-12-19T02:58:43.599Z,1038.37
2018-12-19T02:59:43.582Z,1038.37
2018-12-19T03:00:43.567Z,1038.35
2018-12-19T03:01:43.552Z,1038.36
2018-12-19T03:02:43.534Z,1038.31
2018-12-19T03:03:43.516Z,1038.25
2018-12-19T03:04:43.504Z,1038.27
2018-12-19T03:05:43.481Z,1038.32
2018-12-19T03:06:43.465Z,1038.26
2018-12-19T03:07:43.451Z,1038.25
2018-12-19T03:08:43.443Z,1038.27
2018-12-19T03:09:43.414Z,1038.24
2018-12-19T03:10:43.398Z,1038.22
2018-12-19T03:11:43.381Z,1038.21
2018-12-19T03:12:43.364Z,1038.25
2018-12-19T03:13:43.349Z,1038.21
2018-12-19T03:14:43.328Z,1038.24
2018-12-19T03:15:43.318Z,1038.22
2018-12-19T03:16:43.295Z,1038.2
2018-12-19T03:17:43.277Z,1038.21
2018-12-19T03:18:43.261Z,1038.16
2018-12-19T03:19:43.243Z,1038.16
2018-12-19T03:20:43.228Z,1038.17
2018-12-19T03:21:43.209Z,1038.11
2018-12-19T03:22:43.192Z,1038.11
2018-12-19T03:23:43.175Z,1038.12
2018-12-19T03:24:43.159Z,1038.13
2018-12-19T03:25:43.141Z,1038.09
2018-12-19T03:26:43.126Z,1038.06
2018-12-19T03:27:43.110Z,1038.05
2018-12-19T03:28:43.090Z,1038.05
2018-12-19T03:29:43.073Z,1038.03
2018-12-19T03:30:43.060Z,1038.01
2018-12-19T03:31:43.043Z,1038.01
2018-12-19T03:32:43.024Z,1037.99
2018-12-19T03:33:43.006Z,1038.04
2018-12-19T03:34:42.996Z,1038.05
2018-12-19T03:35:42.973Z,1038.01
2018-12-19T03:36:42.958Z,1037.98
2018-12-19T03:37:42.940Z,1038
2018-12-19T03:38:42.924Z,1038.01
2018-12-19T03:39:49.978Z,1038.05
2018-12-19T03:40:42.889Z,1038
2018-12-19T03:41:42.873Z,1038.01
2018-12-19T03:42:42.856Z,1038.03
2018-12-19T03:43:42.837Z,1038.02
2018-12-19T03:44:42.827Z,1038.07
2018-12-19T03:45:42.805Z,1038.03
2018-12-19T03:46:42.788Z,1038.04
2018-12-19T03:47:42.771Z,1038.04
2018-12-19T03:48:42.755Z,1038.03
2018-12-19T03:49:42.741Z,1038
2018-12-19T03:50:42.719Z,1038.01
2018-12-19T03:51:42.704Z,1037.97
2018-12-19T03:52:42.686Z,1037.96
2018-12-19T03:53:42.671Z,1037.95
2018-12-19T03:54:42.652Z,1037.95
2018-12-19T03:55:42.635Z,1037.94
2018-12-19T03:56:42.618Z,1037.94
2018-12-19T03:57:42.602Z,1037.99
2018-12-19T03:58:42.585Z,1038
2018-12-19T03:59:42.569Z,1038.03
2018-12-19T04:00:42.553Z,1038.03
2018-12-19T04:01:42.543Z,1038.01
2018-12-19T04:02:42.519Z,1037.97
2018-12-19T04:03:42.502Z,1037.93
2018-12-19T04:04:42.484Z,1037.94
2018-12-19T04:05:42.467Z,1037.88
2018-12-19T04:06:42.451Z,1037.92
2018-12-19T04:07:42.436Z,1037.91
2018-12-19T04:08:42.418Z,1037.86
2018-12-19T04:09:42.401Z,1037.85
2018-12-19T04:10:42.385Z,1037.82
2018-12-19T04:11:42.369Z,1037.83
2018-12-19T04:12:42.351Z,1037.85
2018-12-19T04:13:42.334Z,1037.84
2018-12-19T04:14:42.316Z,1037.82
2018-12-19T04:15:42.300Z,1037.83
2018-12-19T04:16:42.283Z,1037.81
2018-12-19T04:17:42.267Z,1037.82
2018-12-19T04:18:42.260Z,1037.77
2018-12-19T04:19:42.233Z,1037.74
2018-12-19T04:20:42.216Z,1037.72
2018-12-19T04:21:42.201Z,1037.71
2018-12-19T04:22:42.186Z,1037.68
2018-12-19T04:23:42.165Z,1037.66
2018-12-19T04:24:42.149Z,1037.63
2018-12-19T04:25:42.141Z,1037.66
2018-12-19T04:26:42.115Z,1037.63
2018-12-19T04:27:42.098Z,1037.62
2018-12-19T04:28:42.087Z,1037.61
2018-12-19T04:29:42.067Z,1037.6
2018-12-19T04:30:42.050Z,1037.56
2018-12-19T04:31:42.032Z,1037.55
2018-12-19T04:32:42.014Z,1037.49
2018-12-19T04:33:41.999Z,1037.49
2018-12-19T04:34:41.981Z,1037.48
2018-12-19T04:35:41.964Z,1037.46
2018-12-19T04:36:41.949Z,1037.41
2018-12-19T04:37:41.932Z,1037.41
2018-12-19T04:38:41.913Z,1037.4
2018-12-19T04:39:41.897Z,1037.41
2018-12-19T04:40:41.883Z,1037.42
2018-12-19T04:41:41.864Z,1037.43
2018-12-19T04:42:41.847Z,1037.42
2018-12-19T04:43:41.833Z,1037.41
2018-12-19T04:44:41.815Z,1037.41
2018-12-19T04:45:41.795Z,1037.39
2018-12-19T04:46:41.781Z,1037.41
2018-12-19T04:47:41.764Z,1037.42
2018-12-19T04:48:41.746Z,1037.43
2018-12-19T04:49:41.729Z,1037.41
2018-12-19T04:50:41.711Z,1037.39
2018-12-19T04:51:41.696Z,1037.36
2018-12-19T04:52:41.677Z,1037.3
2018-12-19T04:53:41.661Z,1037.3
2018-12-19T04:54:41.646Z,1037.24
2018-12-19T04:55:41.628Z,1037.21
2018-12-19T04:56:41.610Z,1037.2
2018-12-19T04:57:41.631Z,1037.11
2018-12-19T04:58:41.578Z,1037.13
2018-12-19T04:59:41.564Z,1037.05
2018-12-19T05:00:41.544Z,1037.05
2018-12-19T05:01:41.527Z,1037.01
2018-12-19T05:02:41.511Z,1036.99
2018-12-19T05:03:41.498Z,1036.96
2018-12-19T05:04:41.477Z,1036.96
2018-12-19T05:05:41.466Z,1036.94
2018-12-19T05:06:41.461Z,1036.96
2018-12-19T05:07:41.426Z,1036.9
2018-12-19T05:08:41.410Z,1036.87
2018-12-19T05:09:41.392Z,1036.84
2018-12-19T05:10:41.377Z,1036.81
2018-12-19T05:11:41.361Z,1036.84
2018-12-19T05:12:41.343Z,1036.82
2018-12-19T05:13:41.326Z,1036.79
2018-12-19T05:14:41.313Z,1036.83
2018-12-19T05:15:41.292Z,1036.77
2018-12-19T05:16:41.276Z,1036.75
2018-12-19T05:17:41.259Z,1036.76
2018-12-19T05:18:41.242Z,1036.73
2018-12-19T05:19:41.229Z,1036.7
2018-12-19T05:20:41.209Z,1036.69
2018-12-19T05:21:41.192Z,1036.71
2018-12-19T05:22:41.176Z,1036.66
2018-12-19T05:23:41.160Z,1036.66
2018-12-19T05:24:41.174Z,1036.64
2018-12-19T05:25:41.124Z,1036.57
2018-12-19T05:26:41.108Z,1036.5
2018-12-19T05:27:41.093Z,1036.54
2018-12-19T05:28:41.077Z,1036.57
2018-12-19T05:29:41.058Z,1036.57
2018-12-19T05:30:41.043Z,1036.57
2018-12-19T05:31:41.027Z,1036.58
2018-12-19T05:32:41.009Z,1036.61
2018-12-19T05:33:40.994Z,1036.62
2018-12-19T05:34:40.976Z,1036.61
2018-12-19T05:35:40.959Z,1036.59
2018-12-19T05:36:40.943Z,1036.6
2018-12-19T05:37:40.927Z,1036.55
2018-12-19T05:38:40.912Z,1036.57
2018-12-19T05:39:40.893Z,1036.57
2018-12-19T05:40:40.876Z,1036.56
2018-12-19T05:41:40.860Z,1036.55
2018-12-19T05:42:40.843Z,1036.59
2018-12-19T05:43:40.830Z,1036.57
2018-12-19T05:44:40.814Z,1036.57
2018-12-19T05:45:40.793Z,1036.57
2018-12-19T05:46:40.776Z,1036.54
2018-12-19T05:47:40.759Z,1036.51
2018-12-19T05:48:40.743Z,1036.52
2018-12-19T05:49:40.727Z,1036.54
2018-12-19T05:50:40.711Z,1036.56
2018-12-19T05:51:40.694Z,1036.58
2018-12-19T05:52:40.676Z,1036.59
2018-12-19T05:53:40.660Z,1036.55
2018-12-19T05:54:40.644Z,1036.57
2018-12-19T05:55:40.628Z,1036.54
2018-12-19T05:56:40.613Z,1036.53
2018-12-19T05:57:40.596Z,1036.6
2018-12-19T05:58:40.578Z,1036.57
2018-12-19T05:59:40.562Z,1036.63
2018-12-19T06:00:40.548Z,1036.58
2018-12-19T06:01:40.528Z,1036.53
2018-12-19T06:02:40.511Z,1036.58
2018-12-19T06:03:40.494Z,1036.58
2018-12-19T06:04:40.478Z,1036.57
2018-12-19T06:05:40.461Z,1036.54
2018-12-19T06:06:40.444Z,1036.5
2018-12-19T06:07:40.428Z,1036.51
2018-12-19T06:08:40.412Z,1036.45
2018-12-19T06:09:40.394Z,1036.47
2018-12-19T06:10:40.380Z,1036.44
2018-12-19T06:11:40.363Z,1036.47
2018-12-19T06:12:40.345Z,1036.39
2018-12-19T06:13:40.328Z,1036.42
2018-12-19T06:14:40.312Z,1036.44
2018-12-19T06:15:40.295Z,1036.43
2018-12-19T06:16:40.278Z,1036.47
2018-12-19T06:17:40.262Z,1036.43
2018-12-19T06:18:40.246Z,1036.39
2018-12-19T06:19:40.229Z,1036.34
2018-12-19T06:20:40.212Z,1036.32
2018-12-19T06:21:40.196Z,1036.3
2018-12-19T06:22:40.179Z,1036.3
2018-12-19T06:23:40.163Z,1036.25
2018-12-19T06:24:40.145Z,1036.29
2018-12-19T06:25:40.128Z,1036.28
2018-12-19T06:26:40.113Z,1036.29
2018-12-19T06:27:40.094Z,1036.23
2018-12-19T06:28:40.082Z,1036.2
2018-12-19T06:29:40.063Z,1036.26
2018-12-19T06:30:40.045Z,1036.26
2018-12-19T06:31:40.029Z,1036.22
2018-12-19T06:32:40.013Z,1036.12
2018-12-19T06:33:39.996Z,1036.19
2018-12-19T06:34:39.981Z,1036.15
2018-12-19T06:35:39.962Z,1036.15
2018-12-19T06:36:39.945Z,1036.17
2018-12-19T06:37:39.929Z,1036.13
2018-12-19T06:38:39.911Z,1036.15
2018-12-19T06:39:39.895Z,1036.16
2018-12-19T06:40:39.879Z,1036.18
2018-12-19T06:41:39.864Z,1036.17
2018-12-19T06:42:39.847Z,1036.16
2018-12-19T06:43:39.830Z,1036.11
2018-12-19T06:44:39.814Z,1036.1
2018-12-19T06:45:39.796Z,1036.12
2018-12-19T06:46:39.779Z,1036.13
2018-12-19T06:47:39.766Z,1036.1
2018-12-19T06:48:39.749Z,1036.12
2018-12-19T06:49:39.729Z,1036.1
2018-12-19T06:50:39.713Z,1036.12
2018-12-19T06:51:39.697Z,1036.05
2018-12-19T06:52:39.682Z,1036.05
2018-12-19T06:53:39.665Z,1036.05
2018-12-19T06:54:39.648Z,1036.06
2018-12-19T06:55:39.631Z,1035.99
2018-12-19T06:56:39.615Z,1035.97
2018-12-19T06:57:39.598Z,1035.95
2018-12-19T06:58:39.582Z,1036
2018-12-19T06:59:39.565Z,1035.94
2018-12-19T07:00:39.548Z,1035.9
2018-12-19T07:01:39.533Z,1035.89
2018-12-19T07:02:39.516Z,1035.85
2018-12-19T07:03:39.500Z,1035.84
2018-12-19T07:04:39.483Z,1035.81
2018-12-19T07:05:39.467Z,1035.82
2018-12-19T07:06:39.452Z,1035.86
2018-12-19T07:07:39.436Z,1035.79
2018-12-19T07:08:39.417Z,1035.85
2018-12-19T07:09:39.402Z,1035.82
2018-12-19T07:10:39.421Z,1035.84
2018-12-19T07:11:39.368Z,1035.8
2018-12-19T07:12:39.353Z,1035.84
2018-12-19T07:13:39.338Z,1035.79
2018-12-19T07:14:39.321Z,1035.81
2018-12-19T07:15:39.305Z,1035.82
2018-12-19T07:16:43.368Z,1035.82
2018-12-19T07:17:39.272Z,1035.87
2018-12-19T07:18:39.257Z,1035.83
2018-12-19T07:19:39.240Z,1035.85
2018-12-19T07:20:39.223Z,1035.86
2018-12-19T07:21:39.208Z,1035.85
2018-12-19T07:22:39.190Z,1035.85
2018-12-19T07:23:39.174Z,1035.83
2018-12-19T07:24:39.159Z,1035.86
2018-12-19T07:25:39.143Z,1035.89
2018-12-19T07:26:39.125Z,1035.88
2018-12-19T07:27:39.112Z,1035.94
2018-12-19T07:28:39.093Z,1035.93
2018-12-19T07:29:39.080Z,1035.94
2018-12-19T07:30:39.061Z,1035.91
2018-12-19T07:31:39.045Z,1035.94
2018-12-19T07:32:39.030Z,1035.94
2018-12-19T07:33:39.012Z,1035.89
2018-12-19T07:34:44.128Z,1035.86
2018-12-19T07:35:38.980Z,1035.82
2018-12-19T07:36:38.965Z,1035.78
2018-12-19T07:37:38.948Z,1035.79
2018-12-19T07:38:38.933Z,1035.82
2018-12-19T07:39:38.918Z,1035.74
2018-12-19T07:40:38.900Z,1035.7
2018-12-19T07:41:38.883Z,1035.7
2018-12-19T07:42:38.867Z,1035.68
2018-12-19T07:43:38.852Z,1035.6
2018-12-19T07:44:38.836Z,1035.57
2018-12-19T07:45:38.820Z,1035.46
2018-12-19T07:46:38.803Z,1035.47
2018-12-19T07:47:38.787Z,1035.49
2018-12-19T07:48:38.773Z,1035.43
2018-12-19T07:49:38.755Z,1035.37
2018-12-19T07:50:38.738Z,1035.29
2018-12-19T07:51:38.723Z,1035.3
2018-12-19T07:52:38.706Z,1035.24
2018-12-19T07:53:38.692Z,1035.19
2018-12-19T07:54:38.675Z,1035.19
2018-12-19T07:55:38.658Z,1035.19
2018-12-19T07:56:38.642Z,1035.1
2018-12-19T07:57:38.627Z,1035.04
2018-12-19T07:58:38.612Z,1035.04
2018-12-19T07:59:38.598Z,1035.02
2018-12-19T08:00:38.581Z,1035.04
2018-12-19T08:01:38.563Z,1034.99
2018-12-19T08:02:38.547Z,1034.97
2018-12-19T08:03:38.531Z,1034.95
2018-12-19T08:04:38.516Z,1034.89
2018-12-19T08:05:38.504Z,1034.88
2018-12-19T08:06:38.485Z,1034.85
2018-12-19T08:07:38.468Z,1034.87
2018-12-19T08:08:38.454Z,1034.84
2018-12-19T08:09:38.438Z,1034.81
2018-12-19T08:10:38.422Z,1034.77
2018-12-19T08:11:38.409Z,1034.72
2018-12-19T08:12:38.390Z,1034.69
2018-12-19T08:13:38.378Z,1034.71
2018-12-19T08:14:38.359Z,1034.72
2018-12-19T08:15:38.343Z,1034.67
2018-12-19T08:16:38.330Z,1034.72
2018-12-19T08:17:38.314Z,1034.69
2018-12-19T08:18:38.297Z,1034.71
2018-12-19T08:19:38.282Z,1034.68
2018-12-19T08:20:38.269Z,1034.71
2018-12-19T08:21:38.254Z,1034.72
2018-12-19T08:22:38.239Z,1034.65
2018-12-19T08:23:38.221Z,1034.67
2018-12-19T08:24:38.204Z,1034.69
2018-12-19T08:25:38.189Z,1034.69
2018-12-19T08:26:38.174Z,1034.68
2018-12-19T08:27:38.159Z,1034.68
2018-12-19T08:28:38.144Z,1034.64
2018-12-19T08:29:38.128Z,1034.67
2018-12-19T08:30:38.363Z,1034.66
2018-12-19T08:31:38.101Z,1034.65
2018-12-19T08:32:38.083Z,1034.65
2018-12-19T08:33:38.067Z,1034.67
2018-12-19T08:34:38.053Z,1034.7
2018-12-19T08:35:38.038Z,1034.68
2018-12-19T08:36:38.021Z,1034.58
2018-12-19T08:37:38.006Z,1034.64
2018-12-19T08:38:37.991Z,1034.58
2018-12-19T08:39:37.975Z,1034.5
2018-12-19T08:40:37.962Z,1034.55
2018-12-19T08:41:37.947Z,1034.49
2018-12-19T08:42:37.930Z,1034.53
2018-12-19T08:43:37.914Z,1034.56
2018-12-19T08:44:37.900Z,1034.54
2018-12-19T08:45:37.885Z,1034.55
2018-12-19T08:46:37.871Z,1034.57
2018-12-19T08:47:37.854Z,1034.51
2018-12-19T08:48:37.839Z,1034.55
2018-12-19T08:49:37.824Z,1034.57
2018-12-19T08:50:37.808Z,1034.59
2018-12-19T08:51:37.794Z,1034.56
2018-12-19T08:52:37.779Z,1034.52
2018-12-19T08:53:37.764Z,1034.53
2018-12-19T08:54:37.748Z,1034.52
2018-12-19T08:55:37.733Z,1034.46
2018-12-19T08:56:37.719Z,1034.41
2018-12-19T08:57:37.704Z,1034.35
2018-12-19T08:58:37.690Z,1034.32
2018-12-19T08:59:37.676Z,1034.32
2018-12-19T09:00:37.658Z,1034.3
2018-12-19T09:01:37.642Z,1034.32
2018-12-19T09:02:37.684Z,1034.29
2018-12-19T09:03:37.613Z,1034.21
2018-12-19T09:04:37.599Z,1034.25
2018-12-19T09:05:37.583Z,1034.18
2018-12-19T09:06:37.569Z,1034.18
2018-12-19T09:07:37.555Z,1034.15
2018-12-19T09:08:37.538Z,1034.12
2018-12-19T09:09:37.524Z,1034.15
2018-12-19T09:10:37.508Z,1034.17
2018-12-19T09:11:37.495Z,1034.23
2018-12-19T09:12:37.479Z,1034.13
2018-12-19T09:13:37.463Z,1034.1
2018-12-19T09:14:37.449Z,1034.07
2018-12-19T09:15:37.437Z,1034.09
2018-12-19T09:16:37.418Z,1034.07
2018-12-19T09:17:37.404Z,1034.09
2018-12-19T09:18:37.389Z,1034.09
2018-12-19T09:19:37.373Z,1034.05
2018-12-19T09:20:37.359Z,1034.02
2018-12-19T09:21:37.344Z,1033.98
2018-12-19T09:22:37.329Z,1034.03
2018-12-19T09:23:37.316Z,1033.99
2018-12-19T09:24:37.299Z,1033.96
2018-12-19T09:25:37.285Z,1034.01
2018-12-19T09:26:37.270Z,1033.95
2018-12-19T09:27:37.256Z,1033.92
2018-12-19T09:28:37.242Z,1033.91
2018-12-19T09:29:37.228Z,1033.9
2018-12-19T09:30:37.210Z,1033.93
2018-12-19T09:31:37.195Z,1033.87
2018-12-19T09:32:37.181Z,1033.87
2018-12-19T09:33:37.167Z,1033.87
2018-12-19T09:34:37.151Z,1033.84
2018-12-19T09:35:37.141Z,1033.85
2018-12-19T09:36:37.122Z,1033.81
2018-12-19T09:37:37.107Z,1033.82
2018-12-19T09:38:37.092Z,1033.81
2018-12-19T09:39:37.077Z,1033.71
2018-12-19T09:40:37.064Z,1033.71
2018-12-19T09:41:37.049Z,1033.68
2018-12-19T09:42:37.033Z,1033.66
2018-12-19T09:43:37.019Z,1033.65
2018-12-19T09:44:37.004Z,1033.68
2018-12-19T09:45:36.988Z,1033.61
2018-12-19T09:46:36.974Z,1033.59
2018-12-19T09:47:36.960Z,1033.61
2018-12-19T09:48:36.945Z,1033.55
2018-12-19T09:49:37.180Z,1033.63
2018-12-19T09:50:36.916Z,1033.61
2018-12-19T09:51:36.901Z,1033.62
2018-12-19T09:52:36.886Z,1033.63
2018-12-19T09:53:36.871Z,1033.58
2018-12-19T09:54:36.856Z,1033.58
2018-12-19T09:55:36.842Z,1033.53
2018-12-19T09:56:36.826Z,1033.46
2018-12-19T09:57:36.812Z,1033.46
2018-12-19T09:58:36.802Z,1033.37
2018-12-19T09:59:36.785Z,1033.26
2018-12-19T10:00:36.769Z,1033.28
2018-12-19T10:01:36.755Z,1033.24
2018-12-19T10:02:36.740Z,1033.25
2018-12-19T10:03:36.725Z,1033.2
2018-12-19T10:04:36.709Z,1033.19
2018-12-19T10:05:36.695Z,1033.17
2018-12-19T10:06:36.680Z,1033.16
2018-12-19T10:07:36.666Z,1033.09
2018-12-19T10:08:36.651Z,1033.12
2018-12-19T10:09:36.637Z,1033.04
2018-12-19T10:10:36.621Z,1032.98
2018-12-19T10:11:36.607Z,1032.98
2018-12-19T10:12:36.593Z,1032.99
2018-12-19T10:13:36.578Z,1032.91
2018-12-19T10:14:36.564Z,1032.93
2018-12-19T10:15:36.551Z,1032.89
2018-12-19T10:16:36.534Z,1032.86
2018-12-19T10:17:40.859Z,1032.85
2018-12-19T10:18:36.505Z,1032.77
2018-12-19T10:19:36.492Z,1032.72
2018-12-19T10:20:36.478Z,1032.64
2018-12-19T10:21:36.463Z,1032.64
2018-12-19T10:22:36.449Z,1032.61
2018-12-19T10:23:36.434Z,1032.58
2018-12-19T10:24:36.419Z,1032.55
2018-12-19T10:25:36.406Z,1032.55
2018-12-19T10:26:36.391Z,1032.54
2018-12-19T10:27:36.377Z,1032.53
2018-12-19T10:28:36.365Z,1032.5
2018-12-19T10:29:36.348Z,1032.48
2018-12-19T10:30:36.334Z,1032.44
2018-12-19T10:31:36.320Z,1032.47
2018-12-19T10:32:36.305Z,1032.48
2018-12-19T10:33:36.291Z,1032.44
2018-12-19T10:34:36.280Z,1032.48
2018-12-19T10:35:36.264Z,1032.46
2018-12-19T10:36:36.249Z,1032.46
2018-12-19T10:37:36.236Z,1032.42
2018-12-19T10:38:36.223Z,1032.4
2018-12-19T10:39:36.209Z,1032.41
2018-12-19T10:40:36.195Z,1032.39
2018-12-19T10:41:36.181Z,1032.32
2018-12-19T10:42:36.168Z,1032.37
2018-12-19T10:43:36.153Z,1032.34
2018-12-19T10:44:36.140Z,1032.32
2018-12-19T10:45:36.127Z,1032.3
2018-12-19T10:46:36.114Z,1032.33
2018-12-19T10:47:36.100Z,1032.3
2018-12-19T10:48:36.085Z,1032.27
2018-12-19T10:49:36.075Z,1032.25
2018-12-19T10:50:36.057Z,1032.18
2018-12-19T10:51:36.045Z,1032.18
2018-12-19T10:52:36.031Z,1032.19
2018-12-19T10:53:36.018Z,1032.16
2018-12-19T10:54:36.003Z,1032.19
2018-12-19T10:55:35.990Z,1032.19
2018-12-19T10:56:35.978Z,1032.21
2018-12-19T10:57:35.965Z,1032.19
2018-12-19T10:58:35.950Z,1032.07
2018-12-19T10:59:35.940Z,1032.07
2018-12-19T11:00:35.924Z,1032.06
2018-12-19T11:01:35.910Z,1031.99
2018-12-19T11:02:35.898Z,1032.01
2018-12-19T11:03:35.883Z,1031.95
2018-12-19T11:04:35.871Z,1031.95
2018-12-19T11:05:35.856Z,1031.86
2018-12-19T11:06:35.843Z,1031.83
2018-12-19T11:07:35.831Z,1031.79
2018-12-19T11:08:35.820Z,1031.69
2018-12-19T11:09:35.803Z,1031.64
2018-12-19T11:10:35.790Z,1031.61
2018-12-19T11:11:35.779Z,1031.61
2018-12-19T11:12:35.764Z,1031.63
2018-12-19T11:13:35.749Z,1031.64
2018-12-19T11:14:35.740Z,1031.61
2018-12-19T11:15:35.726Z,1031.61
2018-12-19T11:16:35.710Z,1031.54
2018-12-19T11:17:35.697Z,1031.61
2018-12-19T11:18:35.683Z,1031.54
2018-12-19T11:19:35.676Z,1031.58
2018-12-19T11:20:35.656Z,1031.57
2018-12-19T11:21:35.643Z,1031.54
2018-12-19T11:22:35.630Z,1031.48
2018-12-19T11:23:35.616Z,1031.53
2018-12-19T11:24:35.607Z,1031.54
2018-12-19T11:25:35.590Z,1031.53
2018-12-19T11:26:35.578Z,1031.49
2018-12-19T11:27:35.563Z,1031.6
2018-12-19T11:28:35.550Z,1031.55
2018-12-19T11:29:35.537Z,1031.52
2018-12-19T11:30:35.525Z,1031.53
2018-12-19T11:31:35.510Z,1031.58
2018-12-19T11:32:35.498Z,1031.52
2018-12-19T11:33:35.485Z,1031.56
2018-12-19T11:34:35.471Z,1031.53
2018-12-19T11:35:35.458Z,1031.46
2018-12-19T11:36:35.445Z,1031.53
2018-12-19T11:37:35.434Z,1031.54
2018-12-19T11:38:35.418Z,1031.51
2018-12-19T11:39:35.405Z,1031.51
2018-12-19T11:40:35.394Z,1031.52
2018-12-19T11:41:38.886Z,1031.55
2018-12-19T11:42:35.366Z,1031.53
2018-12-19T11:43:35.352Z,1031.49
2018-12-19T11:44:35.338Z,1031.5
2018-12-19T11:45:35.324Z,1031.47
2018-12-19T11:46:35.366Z,1031.45
2018-12-19T11:47:35.298Z,1031.45
2018-12-19T11:48:35.318Z,1031.48
2018-12-19T11:49:35.303Z,1031.45
2018-12-19T11:50:35.258Z,1031.44
2018-12-19T11:51:35.246Z,1031.44
2018-12-19T11:52:35.231Z,1031.46
2018-12-19T11:53:35.217Z,1031.44
2018-12-19T11:54:35.206Z,1031.44
2018-12-19T11:55:35.191Z,1031.44
2018-12-19T11:56:35.178Z,1031.35
2018-12-19T11:57:35.167Z,1031.37
2018-12-19T11:58:35.151Z,1031.33
2018-12-19T11:59:35.138Z,1031.34
2018-12-19T12:00:35.124Z,1031.35
2018-12-19T12:01:41.129Z,1031.36
2018-12-19T12:02:35.099Z,1031.39
2018-12-19T12:03:35.086Z,1031.35
2018-12-19T12:04:35.073Z,1031.33
2018-12-19T12:05:35.057Z,1031.35
2018-12-19T12:06:35.045Z,1031.36
2018-12-19T12:07:35.033Z,1031.38
2018-12-19T12:08:35.017Z,1031.37